EZY656V EGGW-EGAC
Flight info
| Callsign | EZY656V |
|---|---|
| Flight time | 0h 49m |
| Altitude | 36000 |
| Route | OLNEY T420 TNT UL28 RODOL UM65 TENSO L603 BELOX DCT REMSI DCT NINEB M148 MAGEE |
| Aircraft | A319/M-SDE3FGHIRWY/LB1 |
Departure
| Time | 2026-05-04 04:12 |
|---|---|
| Airport | London Luton Airport (EGGW) |
Arrival
| Time | 2026-05-04 05:02 |
|---|---|
| Airport | George Best Belfast City Airport (EGAC) |
| Time | Latitude | Longitude | Altitude | Speed | Heading |
|---|---|---|---|---|---|
| 2026-05-04 03:59 | 51.87987 | -0.37862 | 524 ft | 0 kts | 128° |
| 2026-05-04 04:05 | 51.87988 | -0.37864 | 523 ft | 2 kts | 128° |
| 2026-05-04 04:05 | 51.87992 | -0.37873 | 523 ft | 4 kts | 128° |
| 2026-05-04 04:06 | 51.88007 | -0.37904 | 523 ft | 2 kts | 128° |
| 2026-05-04 04:06 | 51.88007 | -0.37906 | 523 ft | 0 kts | 128° |
| 2026-05-04 04:08 | 51.88007 | -0.37905 | 523 ft | 1 kts | 130° |
| 2026-05-04 04:08 | 51.87991 | -0.37907 | 523 ft | 4 kts | 207° |
| 2026-05-04 04:08 | 51.87963 | -0.37972 | 523 ft | 10 kts | 236° |
| 2026-05-04 04:09 | 51.87887 | -0.38014 | 523 ft | 13 kts | 173° |
| 2026-05-04 04:09 | 51.87804 | -0.37926 | 523 ft | 17 kts | 126° |
| 2026-05-04 04:09 | 51.87752 | -0.37751 | 523 ft | 18 kts | 114° |
| 2026-05-04 04:09 | 51.87696 | -0.37556 | 520 ft | 17 kts | 118° |
| 2026-05-04 04:10 | 51.87605 | -0.37456 | 523 ft | 16 kts | 172° |
| 2026-05-04 04:10 | 51.87506 | -0.37530 | 522 ft | 17 kts | 244° |
| 2026-05-04 04:10 | 51.87475 | -0.37705 | 523 ft | 16 kts | 255° |
| 2026-05-04 04:10 | 51.87443 | -0.37886 | 523 ft | 17 kts | 254° |
| 2026-05-04 04:11 | 51.87399 | -0.38038 | 524 ft | 15 kts | 221° |
| 2026-05-04 04:11 | 51.87305 | -0.38111 | 522 ft | 14 kts | 194° |
| 2026-05-04 04:11 | 51.87250 | -0.38071 | 524 ft | 7 kts | 92° |
| 2026-05-04 04:11 | 51.87253 | -0.38054 | 524 ft | 0 kts | 74° |
| 2026-05-04 04:12 | 51.87255 | -0.38042 | 524 ft | 8 kts | 74° |
| 2026-05-04 04:12 | 51.87347 | -0.37516 | 521 ft | 89 kts | 74° |
| 2026-05-04 04:12 | 51.87579 | -0.36203 | 561 ft | 147 kts | 72° |
| 2026-05-04 04:12 | 51.87887 | -0.34625 | 1180 ft | 148 kts | 70° |
| 2026-05-04 04:13 | 51.88220 | -0.33051 | 1875 ft | 147 kts | 69° |
| 2026-05-04 04:13 | 51.88555 | -0.31405 | 2355 ft | 164 kts | 73° |
| 2026-05-04 04:13 | 51.88872 | -0.29533 | 2733 ft | 186 kts | 74° |
| 2026-05-04 04:13 | 51.89354 | -0.27461 | 3079 ft | 211 kts | 51° |
| 2026-05-04 04:14 | 51.90622 | -0.26149 | 3478 ft | 232 kts | 9° |
| 2026-05-04 04:14 | 51.92267 | -0.26519 | 3962 ft | 253 kts | 330° |
| 2026-05-04 04:14 | 51.93476 | -0.28584 | 4763 ft | 261 kts | 292° |
| 2026-05-04 04:14 | 51.93778 | -0.31478 | 5729 ft | 264 kts | 270° |
| 2026-05-04 04:15 | 51.94045 | -0.34441 | 6677 ft | 272 kts | 291° |
| 2026-05-04 04:15 | 51.95044 | -0.37072 | 7630 ft | 277 kts | 307° |
| 2026-05-04 04:15 | 51.96315 | -0.39442 | 8595 ft | 281 kts | 311° |
| 2026-05-04 04:15 | 51.97661 | -0.41776 | 9548 ft | 286 kts | 311° |
| 2026-05-04 04:16 | 51.99011 | -0.44200 | 10277 ft | 298 kts | 309° |
| 2026-05-04 04:16 | 52.00405 | -0.46863 | 10617 ft | 322 kts | 308° |
| 2026-05-04 04:16 | 52.01838 | -0.49756 | 11195 ft | 334 kts | 306° |
| 2026-05-04 04:16 | 52.03254 | -0.52717 | 11981 ft | 339 kts | 306° |
| 2026-05-04 04:17 | 52.04688 | -0.55787 | 12811 ft | 343 kts | 305° |
| 2026-05-04 04:17 | 52.06129 | -0.58906 | 13659 ft | 347 kts | 305° |
| 2026-05-04 04:17 | 52.07577 | -0.62061 | 14396 ft | 350 kts | 304° |
| 2026-05-04 04:17 | 52.09038 | -0.65255 | 15109 ft | 354 kts | 304° |
| 2026-05-04 04:18 | 52.10515 | -0.68487 | 15841 ft | 357 kts | 304° |
| 2026-05-04 04:18 | 52.12052 | -0.71691 | 16555 ft | 363 kts | 309° |
| 2026-05-04 04:18 | 52.13932 | -0.74483 | 17261 ft | 370 kts | 321° |
| 2026-05-04 04:18 | 52.16123 | -0.76733 | 17968 ft | 375 kts | 327° |
| 2026-05-04 04:19 | 52.18380 | -0.78928 | 18612 ft | 379 kts | 326° |
| 2026-05-04 04:19 | 52.20646 | -0.81161 | 19245 ft | 382 kts | 326° |
| 2026-05-04 04:19 | 52.22926 | -0.83424 | 19881 ft | 385 kts | 326° |
| 2026-05-04 04:19 | 52.25225 | -0.85713 | 20518 ft | 389 kts | 325° |
| 2026-05-04 04:20 | 52.27543 | -0.88024 | 21152 ft | 392 kts | 325° |
| 2026-05-04 04:20 | 52.29847 | -0.90316 | 21804 ft | 394 kts | 326° |
| 2026-05-04 04:20 | 52.32196 | -0.92655 | 22453 ft | 397 kts | 326° |
| 2026-05-04 04:20 | 52.34561 | -0.95013 | 23058 ft | 400 kts | 326° |
| 2026-05-04 04:21 | 52.36948 | -0.97396 | 23630 ft | 403 kts | 326° |
| 2026-05-04 04:21 | 52.39352 | -0.99792 | 24122 ft | 406 kts | 327° |
| 2026-05-04 04:21 | 52.41776 | -1.02209 | 24580 ft | 410 kts | 327° |
| 2026-05-04 04:21 | 52.44220 | -1.04653 | 25027 ft | 413 kts | 327° |
| 2026-05-04 04:22 | 52.46682 | -1.07119 | 25482 ft | 416 kts | 327° |
| 2026-05-04 04:22 | 52.49160 | -1.09603 | 25934 ft | 419 kts | 327° |
| 2026-05-04 04:22 | 52.51653 | -1.12113 | 26376 ft | 422 kts | 327° |
| 2026-05-04 04:22 | 52.54159 | -1.14643 | 26824 ft | 425 kts | 327° |
| 2026-05-04 04:23 | 52.56686 | -1.17196 | 27265 ft | 427 kts | 327° |
| 2026-05-04 04:23 | 52.59227 | -1.19763 | 27705 ft | 430 kts | 327° |
| 2026-05-04 04:23 | 52.61786 | -1.22346 | 28137 ft | 433 kts | 327° |
| 2026-05-04 04:23 | 52.64326 | -1.24912 | 28558 ft | 436 kts | 327° |
| 2026-05-04 04:24 | 52.66920 | -1.27538 | 28974 ft | 439 kts | 327° |
| 2026-05-04 04:24 | 52.69526 | -1.30183 | 29384 ft | 441 kts | 327° |
| 2026-05-04 04:24 | 52.72147 | -1.32842 | 29788 ft | 444 kts | 327° |
| 2026-05-04 04:24 | 52.74786 | -1.35524 | 30207 ft | 447 kts | 327° |
| 2026-05-04 04:25 | 52.77439 | -1.38227 | 30557 ft | 448 kts | 327° |
| 2026-05-04 04:25 | 52.80091 | -1.40937 | 30910 ft | 449 kts | 327° |
| 2026-05-04 04:25 | 52.82755 | -1.43661 | 31235 ft | 451 kts | 327° |
| 2026-05-04 04:25 | 52.85431 | -1.46396 | 31549 ft | 453 kts | 327° |
| 2026-05-04 04:26 | 52.88110 | -1.49141 | 31979 ft | 452 kts | 327° |
| 2026-05-04 04:26 | 52.90778 | -1.51881 | 32434 ft | 451 kts | 328° |
| 2026-05-04 04:26 | 52.93435 | -1.54620 | 32881 ft | 449 kts | 328° |
| 2026-05-04 04:26 | 52.96080 | -1.57357 | 33328 ft | 448 kts | 328° |
| 2026-05-04 04:27 | 52.98728 | -1.60099 | 33747 ft | 448 kts | 328° |
| 2026-05-04 04:27 | 53.01366 | -1.62832 | 34176 ft | 446 kts | 328° |
| 2026-05-04 04:27 | 53.03989 | -1.65548 | 34605 ft | 443 kts | 328° |
| 2026-05-04 04:27 | 53.06611 | -1.68260 | 34927 ft | 444 kts | 328° |
| 2026-05-04 04:28 | 53.09197 | -1.70936 | 35212 ft | 445 kts | 328° |
| 2026-05-04 04:28 | 53.11823 | -1.73662 | 35499 ft | 445 kts | 328° |
| 2026-05-04 04:28 | 53.14449 | -1.76396 | 35785 ft | 446 kts | 327° |
| 2026-05-04 04:28 | 53.17078 | -1.79141 | 35969 ft | 446 kts | 327° |
| 2026-05-04 04:29 | 53.22315 | -1.84628 | 36014 ft | 443 kts | 327° |
| 2026-05-04 04:29 | 53.27577 | -1.89950 | 36024 ft | 441 kts | 330° |
| 2026-05-04 04:30 | 53.32928 | -1.94936 | 36024 ft | 440 kts | 331° |
| 2026-05-04 04:30 | 53.38248 | -1.99859 | 36028 ft | 441 kts | 330° |
| 2026-05-04 04:31 | 53.43579 | -2.04915 | 36032 ft | 440 kts | 329° |
| 2026-05-04 04:31 | 53.48892 | -2.10008 | 36026 ft | 440 kts | 330° |
| 2026-05-04 04:32 | 53.54211 | -2.15121 | 36032 ft | 440 kts | 330° |
| 2026-05-04 04:32 | 53.58996 | -2.21470 | 36035 ft | 440 kts | 311° |
| 2026-05-04 04:33 | 53.62208 | -2.30122 | 36026 ft | 441 kts | 292° |
| 2026-05-04 04:33 | 53.64428 | -2.39755 | 36026 ft | 441 kts | 291° |
| 2026-05-04 04:34 | 53.66635 | -2.49407 | 36021 ft | 441 kts | 291° |
| 2026-05-04 04:34 | 53.68832 | -2.59067 | 36021 ft | 441 kts | 291° |
| 2026-05-04 04:35 | 53.71024 | -2.68746 | 36003 ft | 442 kts | 292° |
| 2026-05-04 04:35 | 53.73197 | -2.78393 | 36008 ft | 443 kts | 292° |
| 2026-05-04 04:36 | 53.75378 | -2.88139 | 36014 ft | 444 kts | 292° |
| 2026-05-04 04:36 | 53.77558 | -2.97898 | 36014 ft | 444 kts | 292° |
| 2026-05-04 04:37 | 53.81901 | -3.17460 | 36013 ft | 444 kts | 292° |
| 2026-05-04 04:38 | 53.84042 | -3.27209 | 36014 ft | 445 kts | 292° |
| 2026-05-04 04:38 | 53.85876 | -3.35574 | 36016 ft | 445 kts | 292° |
| 2026-05-04 04:39 | 53.88025 | -3.45417 | 36017 ft | 445 kts | 292° |
| 2026-05-04 04:39 | 53.90162 | -3.55261 | 36019 ft | 445 kts | 292° |
| 2026-05-04 04:40 | 53.92293 | -3.65116 | 36025 ft | 445 kts | 292° |
| 2026-05-04 04:40 | 53.94417 | -3.74996 | 36011 ft | 446 kts | 293° |
| 2026-05-04 04:41 | 53.96738 | -3.84643 | 36024 ft | 442 kts | 302° |
| 2026-05-04 04:41 | 53.99791 | -3.93688 | 36035 ft | 441 kts | 303° |
| 2026-05-04 04:42 | 54.02848 | -4.02744 | 35921 ft | 442 kts | 303° |
| 2026-05-04 04:42 | 54.04373 | -4.07273 | 35678 ft | 442 kts | 303° |
| 2026-05-04 04:42 | 54.05902 | -4.11813 | 35423 ft | 441 kts | 304° |
| 2026-05-04 04:43 | 54.07605 | -4.16125 | 35181 ft | 438 kts | 309° |
| 2026-05-04 04:43 | 54.09369 | -4.20370 | 34906 ft | 438 kts | 309° |
| 2026-05-04 04:43 | 54.11137 | -4.24630 | 33977 ft | 444 kts | 311° |
| 2026-05-04 04:43 | 54.12927 | -4.28949 | 32992 ft | 447 kts | 310° |
| 2026-05-04 04:44 | 54.14706 | -4.33253 | 32048 ft | 451 kts | 310° |
| 2026-05-04 04:44 | 54.16489 | -4.37588 | 31554 ft | 443 kts | 310° |
| 2026-05-04 04:44 | 54.18246 | -4.41870 | 30924 ft | 438 kts | 310° |
| 2026-05-04 04:44 | 54.19982 | -4.46107 | 30314 ft | 433 kts | 309° |
| 2026-05-04 04:45 | 54.21702 | -4.50309 | 29655 ft | 429 kts | 309° |
| 2026-05-04 04:45 | 54.23399 | -4.54461 | 29068 ft | 423 kts | 309° |
| 2026-05-04 04:45 | 54.25076 | -4.58561 | 28485 ft | 418 kts | 309° |
| 2026-05-04 04:47 | 54.34717 | -4.82267 | 25197 ft | 394 kts | 308° |
| 2026-05-04 04:47 | 54.36273 | -4.86115 | 24698 ft | 391 kts | 308° |
| 2026-05-04 04:47 | 54.37810 | -4.89918 | 24210 ft | 389 kts | 307° |
| 2026-05-04 04:47 | 54.39348 | -4.93726 | 23720 ft | 388 kts | 307° |
| 2026-05-04 04:48 | 54.40877 | -4.97531 | 23178 ft | 386 kts | 307° |
| 2026-05-04 04:49 | 54.46842 | -5.12406 | 21282 ft | 371 kts | 307° |
| 2026-05-04 04:49 | 54.48115 | -5.16247 | 20783 ft | 372 kts | 292° |
| 2026-05-04 04:49 | 54.48602 | -5.20607 | 20098 ft | 375 kts | 272° |
| 2026-05-04 04:49 | 54.48214 | -5.25026 | 19285 ft | 375 kts | 256° |
| 2026-05-04 04:50 | 54.47378 | -5.29250 | 18510 ft | 371 kts | 250° |
| 2026-05-04 04:50 | 54.46448 | -5.33362 | 17651 ft | 367 kts | 250° |
| 2026-05-04 04:50 | 54.45535 | -5.37371 | 16820 ft | 363 kts | 250° |
| 2026-05-04 04:50 | 54.44620 | -5.41389 | 15993 ft | 360 kts | 250° |
| 2026-05-04 04:51 | 54.43715 | -5.45368 | 15186 ft | 356 kts | 250° |
| 2026-05-04 04:51 | 54.42821 | -5.49315 | 14406 ft | 352 kts | 250° |
| 2026-05-04 04:51 | 54.41941 | -5.53217 | 13606 ft | 349 kts | 250° |
| 2026-05-04 04:51 | 54.41070 | -5.57078 | 12753 ft | 345 kts | 250° |
| 2026-05-04 04:52 | 54.40204 | -5.60893 | 11888 ft | 342 kts | 250° |
| 2026-05-04 04:52 | 54.39342 | -5.64674 | 11032 ft | 338 kts | 250° |
| 2026-05-04 04:52 | 54.38611 | -5.68477 | 10196 ft | 334 kts | 255° |
| 2026-05-04 04:52 | 54.37946 | -5.72267 | 9311 ft | 330 kts | 255° |
| 2026-05-04 04:53 | 54.37304 | -5.75965 | 8423 ft | 326 kts | 255° |
| 2026-05-04 04:53 | 54.36670 | -5.79666 | 7550 ft | 321 kts | 255° |
| 2026-05-04 04:53 | 54.36050 | -5.83318 | 6700 ft | 317 kts | 255° |
| 2026-05-04 04:53 | 54.35443 | -5.86919 | 6004 ft | 308 kts | 255° |
| 2026-05-04 04:54 | 54.34855 | -5.90377 | 5458 ft | 296 kts | 255° |
| 2026-05-04 04:54 | 54.34284 | -5.93697 | 4923 ft | 286 kts | 255° |
| 2026-05-04 04:54 | 54.33748 | -5.96906 | 4483 ft | 273 kts | 259° |
| 2026-05-04 04:54 | 54.33769 | -5.99988 | 4200 ft | 250 kts | 288° |
| 2026-05-04 04:55 | 54.34458 | -6.02609 | 3941 ft | 233 kts | 304° |
| 2026-05-04 04:55 | 54.35357 | -6.04835 | 3700 ft | 228 kts | 308° |
| 2026-05-04 04:55 | 54.36302 | -6.07004 | 3394 ft | 226 kts | 309° |
| 2026-05-04 04:55 | 54.37319 | -6.09009 | 3144 ft | 219 kts | 319° |
| 2026-05-04 04:56 | 54.38458 | -6.10699 | 2940 ft | 213 kts | 324° |
| 2026-05-04 04:56 | 54.39787 | -6.11650 | 2729 ft | 206 kts | 352° |
| 2026-05-04 04:56 | 54.41187 | -6.11465 | 2549 ft | 201 kts | 18° |
| 2026-05-04 04:56 | 54.42403 | -6.10324 | 2418 ft | 200 kts | 34° |
| 2026-05-04 04:57 | 54.43540 | -6.08976 | 2286 ft | 195 kts | 33° |
| 2026-05-04 04:57 | 54.44642 | -6.07670 | 2152 ft | 190 kts | 33° |
| 2026-05-04 04:57 | 54.45721 | -6.06393 | 2065 ft | 188 kts | 33° |
| 2026-05-04 04:57 | 54.46789 | -6.05129 | 2011 ft | 186 kts | 33° |
| 2026-05-04 04:58 | 54.47842 | -6.03881 | 2014 ft | 186 kts | 33° |
| 2026-05-04 04:58 | 54.48883 | -6.02647 | 2009 ft | 179 kts | 33° |
| 2026-05-04 04:58 | 54.49899 | -6.01441 | 2033 ft | 177 kts | 33° |
| 2026-05-04 04:58 | 54.50894 | -6.00259 | 2009 ft | 170 kts | 33° |
| 2026-05-04 04:59 | 54.51856 | -5.99117 | 2008 ft | 167 kts | 33° |
| 2026-05-04 04:59 | 54.52803 | -5.97992 | 1973 ft | 165 kts | 33° |
| 2026-05-04 04:59 | 54.53735 | -5.96883 | 1827 ft | 160 kts | 33° |
| 2026-05-04 04:59 | 54.54635 | -5.95812 | 1638 ft | 156 kts | 32° |
| 2026-05-04 05:00 | 54.55527 | -5.94751 | 1427 ft | 159 kts | 32° |
| 2026-05-04 05:00 | 54.56402 | -5.93707 | 1211 ft | 151 kts | 32° |
| 2026-05-04 05:00 | 54.58028 | -5.91767 | 801 ft | 135 kts | 32° |
| 2026-05-04 05:01 | 54.58794 | -5.90860 | 625 ft | 132 kts | 33° |
| 2026-05-04 05:01 | 54.59549 | -5.89963 | 469 ft | 132 kts | 34° |
| 2026-05-04 05:01 | 54.60303 | -5.89061 | 268 ft | 131 kts | 33° |
| 2026-05-04 05:01 | 54.60799 | -5.88472 | 143 ft | 131 kts | 34° |
| 2026-05-04 05:02 | 54.61525 | -5.87587 | 17 ft | 119 kts | 31° |
| 2026-05-04 05:02 | 54.62045 | -5.86969 | 17 ft | 50 kts | 35° |
| 2026-05-04 05:02 | 54.62218 | -5.86765 | 20 ft | 26 kts | 34° |
| 2026-05-04 05:02 | 54.62301 | -5.86630 | 20 ft | 6 kts | 44° |
| 2026-05-04 05:03 | 54.62306 | -5.86678 | 20 ft | 8 kts | 215° |
| 2026-05-04 05:03 | 54.62260 | -5.86723 | 22 ft | 15 kts | 210° |
| 2026-05-04 05:04 | 54.61878 | -5.87170 | 19 ft | 15 kts | 207° |
| 2026-05-04 05:04 | 54.61808 | -5.87108 | 18 ft | 13 kts | 124° |
| 2026-05-04 05:04 | 54.61762 | -5.87005 | 21 ft | 10 kts | 139° |
| 2026-05-04 05:06 | 54.61538 | -5.87097 | 21 ft | 0 kts | 124° |